This is the latest recevied weather packets stored in our database for station/object DL7HMX-13. If no packets are shown the sender has not sent any weather packets the latest 1 day(s).
| Time | Temp. | Humidity | Pressure | Rain* | Wind** | Luminosity | Snow |
|---|---|---|---|---|---|---|---|
| 1778029229 | 12.78° C | 97% | 1008.3 hPa | 0 mm | 0.45 m/s, 145° | 0 W/m² | - |
| 1778028617 | 13.33° C | 97% | 1008.1 hPa | 0 mm | 0.45 m/s, 105° | 0 W/m² | - |
| 1778028019 | 13.33° C | 95% | 1008.4 hPa | 0 mm | 0 m/s | 0 W/m² | - |
| 1778027422 | 13.33° C | 94% | 1008.6 hPa | 0.25 mm | 0 m/s | 0 W/m² | - |
| 1778026825 | 13.33° C | 94% | 1008.8 hPa | 0.25 mm | 0.45 m/s, 128° | 0 W/m² | - |
| 1778026229 | 13.89° C | 93% | 1008.9 hPa | 0.25 mm | 0.89 m/s, 185° | 0 W/m² | - |
| 1778025631 | 13.33° C | 94% | 1008.9 hPa | 0.25 mm | 0.45 m/s, 184° | 0 W/m² | - |
| 1778025018 | 13.89° C | 94% | 1008.8 hPa | 0.25 mm | 0.45 m/s, 139° | 0 W/m² | - |
| 1778024421 | 13.89° C | 94% | 1008.9 hPa | 0.25 mm | 0.45 m/s, 138° | 0 W/m² | - |
| 1778023823 | 13.89° C | 92% | 1008.9 hPa | 0 mm | 0.89 m/s, 155° | 0 W/m² | - |
| 1778023227 | 13.89° C | 91% | 1008.8 hPa | 0 mm | 0.89 m/s, 182° | 0 W/m² | - |
| 1778022630 | 13.89° C | 91% | 1008.7 hPa | 0.25 mm | 0.89 m/s, 174° | 0 W/m² | - |
| 1778022016 | 13.89° C | 92% | 1008.7 hPa | 0.25 mm | 1.79 m/s, 226° | 0 W/m² | - |
| 1778021421 | 13.89° C | 91% | 1008.6 hPa | 0.25 mm | 2.24 m/s, 240° | 0 W/m² | - |
| 1778020823 | 14.44° C | 91% | 1008.6 hPa | 0.25 mm | 2.24 m/s, 222° | 0 W/m² | - |
| 1778020225 | 14.44° C | 92% | 1008.5 hPa | 0.25 mm | 2.24 m/s, 228° | 0 W/m² | - |
| 1778019628 | 14.44° C | 92% | 1008.2 hPa | 0.25 mm | 0.89 m/s, 190° | 0 W/m² | - |
| 1778019032 | 14.44° C | 92% | 1008.2 hPa | 0 mm | 0.45 m/s, 153° | 0 W/m² | - |
| 1778017820 | 13.89° C | 92% | 1007.9 hPa | 0 mm | 0.45 m/s, 126° | 0 W/m² | - |
| 1778017223 | 13.89° C | 95% | 1007.9 hPa | 0 mm | 0 m/s | 0 W/m² | - |
| 1778016025 | 14.44° C | 93% | 1007.6 hPa | 0 mm | 0.45 m/s, 142° | 0 W/m² | - |
| 1778015428 | 14.44° C | 93% | 1007.4 hPa | 0 mm | 0.89 m/s, 142° | 0 W/m² | - |
| 1778014831 | 13.89° C | 94% | 1007.4 hPa | 0 mm | 0.89 m/s, 181° | 0 W/m² | - |
| 1778014218 | 13.89° C | 94% | 1007.3 hPa | 0 mm | 0.89 m/s, 178° | 0 W/m² | - |
| 1778013618 | 13.89° C | 95% | 1007 hPa | 0 mm | 0.45 m/s, 151° | 0 W/m² | - |
* Rain latest hour (hover to see other rain measurements)
** Current wind speed in m/s (hover to see current wind gust speed)